Time;durP1;ratioP1;P1;durP2;ratioP2;P2;SDS_P1;SDS_P2;PMS_P1;PMS_P2;Temp;Humidity;BMP_temperature;BMP_pressure;BME280_temperature;BME280_humidity;BME280_pressure;Samples;Min_cycle;Max_cycle;Signal;HPM_P1;HPM_P2
2023/05/09 00:01:19;;;;;;;3.75;1.90;;;13.50;99.90;;;;;;5042979;28;20021;-70
2023/05/09 00:03:45;;;;;;;3.03;2.30;;;13.60;99.90;;;;;;5042951;28;20021;-70
2023/05/09 00:06:12;;;;;;;3.15;2.67;;;13.60;99.90;;;;;;5043306;28;20056;-70
2023/05/09 00:08:37;;;;;;;4.32;2.50;;;13.60;99.90;;;;;;5037705;28;20025;-70
2023/05/09 00:11:03;;;;;;;2.65;2.00;;;13.60;99.90;;;;;;5043228;28;20021;-70
2023/05/09 00:13:29;;;;;;;2.95;2.20;;;13.60;99.90;;;;;;5043207;28;20452;-70
2023/05/09 00:15:56;;;;;;;3.47;2.55;;;13.60;99.90;;;;;;5042933;28;20381;-70
2023/05/09 00:18:22;;;;;;;3.33;2.17;;;13.70;99.90;;;;;;5036740;28;20449;-70
2023/05/09 00:20:49;;;;;;;3.72;2.10;;;13.70;99.90;;;;;;5043075;28;20552;-71
2023/05/09 00:23:15;;;;;;;2.58;2.38;;;13.70;99.90;;;;;;5043174;28;20021;-70
2023/05/09 00:25:41;;;;;;;4.82;2.88;;;13.60;99.90;;;;;;5042878;28;20055;-70
2023/05/09 00:28:07;;;;;;;2.88;2.17;;;13.60;99.90;;;;;;5043013;28;20029;-70
2023/05/09 00:30:33;;;;;;;7.65;2.97;;;13.60;99.90;;;;;;5042929;28;20037;-70
2023/05/09 00:32:58;;;;;;;3.42;2.30;;;13.60;99.90;;;;;;5042826;28;20504;-70
2023/05/09 00:35:24;;;;;;;3.25;2.33;;;13.70;99.90;;;;;;5042750;28;20075;-70
2023/05/09 00:37:50;;;;;;;4.85;2.80;;;13.70;99.90;;;;;;5042948;28;20117;-70
2023/05/09 00:40:15;;;;;;;5.80;2.38;;;13.60;99.90;;;;;;5042707;28;20390;-70
2023/05/09 00:42:41;;;;;;;2.72;2.15;;;13.60;99.90;;;;;;5042922;28;20025;-70
2023/05/09 00:45:07;;;;;;;2.85;2.40;;;13.50;99.90;;;;;;5039365;28;20398;-70
2023/05/09 00:47:33;;;;;;;2.50;2.28;;;13.40;99.90;;;;;;5033801;28;20021;-70
2023/05/09 00:50:00;;;;;;;3.88;2.25;;;13.40;99.90;;;;;;5038276;28;20496;-70
2023/05/09 00:52:26;;;;;;;5.57;2.85;;;13.30;99.90;;;;;;5034545;28;20025;-70
2023/05/09 00:54:53;;;;;;;3.55;2.45;;;13.30;99.90;;;;;;5039639;28;20029;-70
2023/05/09 00:57:19;;;;;;;6.40;2.85;;;13.20;99.90;;;;;;5034360;28;20018;-70
2023/05/09 00:59:45;;;;;;;3.60;2.50;;;13.20;99.90;;;;;;5039403;28;20038;-70
2023/05/09 01:02:11;;;;;;;4.13;2.53;;;13.10;99.90;;;;;;5039215;28;20036;-70
2023/05/09 01:04:37;;;;;;;4.32;2.88;;;13.00;99.90;;;;;;5039355;28;20508;-70
2023/05/09 01:07:34;;;;;;;3.92;2.40;;;13.00;99.90;;;;;;5039372;28;20025;-70
2023/05/09 01:10:47;;;;;;;3.72;2.45;;;13.00;99.90;;;;;;5039408;28;20025;-73
2023/05/09 01:13:28;;;;;;;4.15;2.65;;;13.00;99.90;;;;;;5042854;28;20034;-73
2023/05/09 01:16:23;;;;;;;;;;;12.90;99.90;;;;;;5039468;28;20025;-72
2023/05/09 01:18:57;;;;;;;6.22;3.25;;;12.90;99.90;;;;;;5032517;28;19928;-72
2023/05/09 01:21:28;;;;;;;5.32;3.58;;;12.90;99.90;;;;;;5039114;28;20029;-72
2023/05/09 01:24:45;;;;;;;6.30;3.75;;;12.80;99.90;;;;;;5039057;28;20117;-73
2023/05/09 01:27:46;;;;;;;9.00;3.88;;;12.90;99.90;;;;;;5037392;28;20033;-72
2023/05/09 01:30:12;;;;;;;3.85;2.88;;;12.80;99.90;;;;;;5036916;28;20017;-72
2023/05/09 01:32:41;;;;;;;4.97;3.03;;;12.80;99.90;;;;;;5038557;28;20500;-73
2023/05/09 01:35:10;;;;;;;5.32;3.78;;;12.80;99.90;;;;;;5038712;28;20432;-73
2023/05/09 01:37:40;;;;;;;4.00;3.22;;;12.70;99.90;;;;;;5038688;28;20104;-73
2023/05/09 01:40:10;;;;;;;5.20;3.00;;;12.70;99.90;;;;;;5037728;28;20021;-72
2023/05/09 01:42:50;;;;;;;6.68;3.10;;;12.70;99.90;;;;;;5038676;28;20025;-73
2023/05/09 01:45:17;;;;;;;5.22;3.00;;;12.70;99.90;;;;;;5035801;28;20021;-72
2023/05/09 01:47:43;;;;;;;4.18;2.92;;;12.70;99.90;;;;;;5038167;28;20087;-73
2023/05/09 01:50:10;;;;;;;4.70;3.33;;;12.70;99.90;;;;;;5038298;28;20085;-73
2023/05/09 01:52:38;;;;;;;6.18;4.85;;;12.80;99.90;;;;;;5038476;28;20044;-73
2023/05/09 01:55:06;;;;;;;7.03;3.40;;;12.80;99.90;;;;;;5036869;28;20026;-73
2023/05/09 01:57:32;;;;;;;4.03;3.00;;;12.80;99.90;;;;;;5038277;28;20025;-73
2023/05/09 02:00:00;;;;;;;6.80;3.33;;;12.90;99.90;;;;;;5037017;28;20021;-73
2023/05/09 02:02:27;;;;;;;7.95;3.58;;;12.90;99.90;;;;;;5038087;28;20105;-73
2023/05/09 02:04:56;;;;;;;4.68;3.10;;;12.90;99.90;;;;;;5038203;28;20024;-72
2023/05/09 02:07:23;;;;;;;4.47;3.45;;;12.90;99.90;;;;;;5038133;28;20024;-73
2023/05/09 02:09:52;;;;;;;4.75;3.70;;;13.00;99.90;;;;;;5038130;28;20009;-70
2023/05/09 02:12:18;;;;;;;5.68;3.45;;;13.00;99.90;;;;;;5038026;28;20026;-72
2023/05/09 02:14:44;;;;;;;4.20;3.17;;;13.00;99.90;;;;;;5038074;28;20048;-73
2023/05/09 02:17:15;;;;;;;5.68;3.72;;;13.00;99.90;;;;;;5037671;28;20045;-72
2023/05/09 02:19:41;;;;;;;6.28;3.70;;;13.00;99.90;;;;;;5037883;28;20064;-73
2023/05/09 02:22:08;;;;;;;6.10;3.83;;;13.00;99.90;;;;;;5036521;28;20017;-73
2023/05/09 02:24:34;;;;;;;9.10;4.05;;;13.10;99.90;;;;;;5038133;28;20029;-73
2023/05/09 02:27:02;;;;;;;6.72;3.33;;;13.10;99.90;;;;;;5036317;28;20024;-73
2023/05/09 02:29:38;;;;;;;5.55;2.95;;;13.10;99.90;;;;;;5038089;28;20083;-72
2023/05/09 02:32:10;;;;;;;6.30;3.10;;;13.10;99.90;;;;;;5020840;28;20029;-72
2023/05/09 02:34:37;;;;;;;5.28;2.80;;;13.10;99.90;;;;;;5033073;28;20026;-73
2023/05/09 02:37:03;;;;;;;5.03;3.13;;;13.10;99.90;;;;;;5037826;28;20017;-72
2023/05/09 02:39:30;;;;;;;5.32;3.20;;;13.20;99.90;;;;;;5037579;28;20025;-72
2023/05/09 02:41:55;;;;;;;6.43;3.50;;;13.30;99.90;;;;;;5036299;28;20021;-72
2023/05/09 02:44:21;;;;;;;4.43;3.25;;;13.30;99.90;;;;;;5037485;28;20047;-72
2023/05/09 02:46:47;;;;;;;5.90;3.45;;;13.30;99.90;;;;;;5037375;28;20014;-72
2023/05/09 02:49:12;;;;;;;9.30;3.35;;;13.40;99.90;;;;;;5037294;28;20547;-72
2023/05/09 02:51:38;;;;;;;4.97;3.08;;;13.40;99.90;;;;;;5037733;28;20021;-73
2023/05/09 02:54:03;;;;;;;4.35;3.03;;;13.40;99.90;;;;;;5035967;28;20124;-72
2023/05/09 02:56:29;;;;;;;7.90;3.40;;;13.40;99.90;;;;;;5037327;28;20167;-73
2023/05/09 02:58:55;;;;;;;6.53;3.25;;;13.40;99.90;;;;;;5037054;28;20033;-73
2023/05/09 03:01:20;;;;;;;5.40;2.80;;;13.40;99.90;;;;;;5028271;28;20445;-72
2023/05/09 03:03:46;;;;;;;4.65;3.10;;;13.30;99.90;;;;;;5020971;28;20030;-72
2023/05/09 03:06:13;;;;;;;6.93;2.90;;;13.30;99.90;;;;;;5035721;28;20497;-72
2023/05/09 03:08:38;;;;;;;4.85;3.45;;;13.30;99.90;;;;;;5036626;28;20036;-72
2023/05/09 03:11:04;;;;;;;7.35;3.17;;;13.30;99.90;;;;;;5036913;28;20048;-72
2023/05/09 03:13:30;;;;;;;3.92;2.90;;;13.30;99.90;;;;;;5037219;28;20025;-72
2023/05/09 03:15:55;;;;;;;4.40;2.85;;;13.30;99.90;;;;;;5036743;28;20424;-72
2023/05/09 03:18:21;;;;;;;6.53;3.63;;;13.30;99.90;;;;;;5035417;28;20057;-72
2023/05/09 03:20:47;;;;;;;5.68;3.60;;;13.30;99.90;;;;;;5037143;28;20029;-72
2023/05/09 03:23:12;;;;;;;5.97;2.80;;;13.30;99.90;;;;;;5037104;28;20104;-72
2023/05/09 03:25:38;;;;;;;5.63;3.03;;;13.30;99.90;;;;;;5035653;28;20028;-72
2023/05/09 03:28:04;;;;;;;3.97;3.10;;;13.30;99.90;;;;;;5036907;28;20032;-72
2023/05/09 03:30:29;;;;;;;9.80;3.20;;;13.20;99.90;;;;;;5036706;28;20037;-73
2023/05/09 03:32:55;;;;;;;6.55;2.88;;;13.20;99.90;;;;;;5036801;28;20036;-72
2023/05/09 03:35:21;;;;;;;4.22;3.30;;;13.20;99.90;;;;;;5036630;28;20495;-72
2023/05/09 03:37:46;;;;;;;7.55;3.60;;;13.20;99.90;;;;;;5036988;28;20513;-72
2023/05/09 03:40:12;;;;;;;4.25;3.03;;;13.20;99.90;;;;;;5036564;28;20022;-72
2023/05/09 03:42:38;;;;;;;5.32;3.67;;;13.20;99.90;;;;;;5036896;28;20029;-72
2023/05/09 03:45:04;;;;;;;9.27;3.20;;;13.20;99.90;;;;;;5033470;28;20029;-72
2023/05/09 03:47:29;;;;;;;4.32;3.53;;;13.20;99.90;;;;;;5036714;28;20029;-72
2023/05/09 03:49:55;;;;;;;6.90;3.63;;;13.20;99.90;;;;;;5035224;28;21027;-72
2023/05/09 03:52:20;;;;;;;9.10;3.85;;;13.20;99.90;;;;;;5036762;28;20030;-72
2023/05/09 03:54:46;;;;;;;5.03;3.40;;;13.20;99.90;;;;;;5035453;28;20381;-72
2023/05/09 03:57:12;;;;;;;5.10;3.58;;;13.30;99.90;;;;;;5036701;28;20033;-72
2023/05/09 03:59:37;;;;;;;5.43;3.28;;;13.30;99.90;;;;;;5036557;28;20052;-72
2023/05/09 04:02:03;;;;;;;7.35;3.92;;;13.30;99.90;;;;;;5036426;28;20028;-70
2023/05/09 04:04:29;;;;;;;8.48;3.58;;;13.20;99.90;;;;;;5036603;28;20026;-69
2023/05/09 04:06:54;;;;;;;6.95;3.20;;;13.30;99.90;;;;;;5035322;28;20028;-72
2023/05/09 04:09:20;;;;;;;8.35;3.92;;;13.30;99.90;;;;;;5036686;28;20029;-72
2023/05/09 04:11:46;;;;;;;10.95;3.17;;;13.20;99.90;;;;;;5036456;28;20028;-72
2023/05/09 04:14:11;;;;;;;7.82;3.28;;;13.20;99.90;;;;;;5036484;28;20026;-72
2023/05/09 04:16:37;;;;;;;4.90;3.40;;;13.20;99.90;;;;;;5036379;28;20061;-72
2023/05/09 04:19:03;;;;;;;6.88;4.05;;;13.20;99.90;;;;;;5036393;28;20069;-72
2023/05/09 04:21:28;;;;;;;6.60;3.50;;;13.20;99.90;;;;;;5040350;28;20053;-70
2023/05/09 04:23:54;;;;;;;5.13;3.35;;;13.30;99.90;;;;;;5040331;28;20053;-70
2023/05/09 04:26:21;;;;;;;5.78;3.95;;;13.20;99.90;;;;;;5040313;28;20052;-72
2023/05/09 04:28:47;;;;;;;8.48;4.35;;;13.20;99.90;;;;;;5020726;28;20058;-72
2023/05/09 04:31:13;;;;;;;6.85;3.42;;;13.30;99.90;;;;;;5034830;28;20026;-72
2023/05/09 04:33:39;;;;;;;9.43;3.53;;;13.30;99.90;;;;;;5038735;28;20026;-72
2023/05/09 04:36:05;;;;;;;4.95;3.30;;;13.20;99.90;;;;;;5038520;28;20486;-72
2023/05/09 04:38:30;;;;;;;4.82;3.80;;;13.20;99.90;;;;;;5040163;28;20074;-72
2023/05/09 04:40:57;;;;;;;9.00;3.22;;;13.20;99.90;;;;;;5039860;28;20108;-72
2023/05/09 04:43:25;;;;;;;5.53;3.50;;;13.20;99.90;;;;;;5040026;28;20034;-72
2023/05/09 04:45:50;;;;;;;6.25;3.33;;;13.10;99.90;;;;;;5039364;28;20017;-72
2023/05/09 04:48:16;;;;;;;4.85;3.38;;;13.10;99.90;;;;;;5039799;28;20587;-72
2023/05/09 04:50:42;;;;;;;7.13;3.83;;;13.00;99.90;;;;;;5039563;28;20029;-72
2023/05/09 04:53:07;;;;;;;8.77;4.90;;;13.00;99.90;;;;;;5039735;28;20104;-72
2023/05/09 04:55:34;;;;;;;10.43;3.70;;;12.90;99.90;;;;;;5038288;28;20032;-72
2023/05/09 04:58:00;;;;;;;5.57;3.28;;;12.90;99.90;;;;;;5038830;28;20417;-70
2023/05/09 05:00:25;;;;;;;7.00;3.97;;;12.90;99.90;;;;;;5039366;28;20032;-72
2023/05/09 05:02:51;;;;;;;6.07;3.70;;;12.90;99.90;;;;;;5038059;28;20057;-72
2023/05/09 05:05:17;;;;;;;8.85;3.90;;;12.90;99.90;;;;;;5039168;28;20021;-70
2023/05/09 05:07:42;;;;;;;6.32;3.28;;;12.90;99.90;;;;;;5038026;28;20033;-70
2023/05/09 05:10:08;;;;;;;6.63;3.60;;;13.00;99.90;;;;;;5039102;28;20482;-70
2023/05/09 05:12:34;;;;;;;7.60;3.40;;;13.00;99.90;;;;;;5039317;28;20026;-70
2023/05/09 05:15:00;;;;;;;10.90;4.40;;;13.10;99.90;;;;;;5037713;28;20026;-70
2023/05/09 05:17:28;;;;;;;6.63;3.67;;;13.00;99.90;;;;;;5038858;28;20045;-70
2023/05/09 05:19:54;;;;;;;9.05;4.32;;;13.20;99.90;;;;;;5038758;28;20018;-70
2023/05/09 05:22:20;;;;;;;8.15;4.45;;;13.20;99.90;;;;;;5039429;28;20424;-70
2023/05/09 05:24:46;;;;;;;6.18;4.13;;;13.20;99.90;;;;;;5039042;28;20401;-70
2023/05/09 05:27:11;;;;;;;7.70;4.55;;;13.30;99.90;;;;;;5037952;28;20470;-70
2023/05/09 05:29:37;;;;;;;9.57;4.25;;;13.40;99.90;;;;;;5038796;28;20075;-70
2023/05/09 05:32:03;;;;;;;5.55;3.58;;;13.40;99.90;;;;;;5038566;28;20029;-70
2023/05/09 05:34:29;;;;;;;9.75;4.25;;;13.50;99.90;;;;;;5038665;28;20025;-70
2023/05/09 05:36:55;;;;;;;8.30;4.35;;;13.50;99.90;;;;;;5037576;28;20026;-70
2023/05/09 05:39:20;;;;;;;7.72;4.32;;;13.50;99.90;;;;;;5037334;28;20203;-70
2023/05/09 05:41:46;;;;;;;9.52;4.22;;;13.60;99.90;;;;;;5038852;28;20025;-70
2023/05/09 05:44:12;;;;;;;5.20;3.63;;;13.70;99.90;;;;;;5038539;28;20036;-70
2023/05/09 05:46:37;;;;;;;12.00;4.53;;;13.80;99.90;;;;;;5038571;28;20029;-70
2023/05/09 05:49:03;;;;;;;9.68;4.32;;;13.90;99.90;;;;;;5037136;28;20056;-70
2023/05/09 05:51:29;;;;;;;7.47;3.90;;;13.90;99.90;;;;;;5038744;28;20029;-70
2023/05/09 05:53:55;;;;;;;7.28;3.75;;;14.00;99.90;;;;;;5038155;28;20017;-70
2023/05/09 05:56:21;;;;;;;8.82;3.97;;;14.00;99.90;;;;;;5037217;28;20117;-70
2023/05/09 05:58:47;;;;;;;9.38;3.60;;;14.00;99.90;;;;;;5038270;28;20446;-70
2023/05/09 06:01:13;;;;;;;8.43;3.30;;;14.20;99.90;;;;;;5038396;28;20048;-70
2023/05/09 06:03:38;;;;;;;8.63;4.05;;;14.20;99.90;;;;;;5038104;28;20071;-70
2023/05/09 06:06:04;;;;;;;6.45;3.85;;;14.30;99.90;;;;;;5038382;28;20478;-70
2023/05/09 06:08:30;;;;;;;10.93;4.28;;;14.30;99.90;;;;;;5038244;28;20086;-70
2023/05/09 06:10:56;;;;;;;10.45;4.60;;;14.40;99.90;;;;;;5038371;28;20097;-70
2023/05/09 06:13:21;;;;;;;12.82;4.43;;;14.40;99.90;;;;;;5036842;28;20120;-70
2023/05/09 06:15:47;;;;;;;11.77;4.15;;;14.50;99.90;;;;;;5038125;28;20466;-70
2023/05/09 06:18:13;;;;;;;6.40;4.00;;;14.60;99.90;;;;;;5037627;28;20057;-70
2023/05/09 06:20:38;;;;;;;7.88;3.95;;;14.70;99.90;;;;;;5038291;28;20029;-70
2023/05/09 06:23:04;;;;;;;6.85;3.83;;;14.80;99.90;;;;;;5037951;28;20021;-70
2023/05/09 06:25:30;;;;;;;5.82;3.65;;;14.90;99.90;;;;;;5025818;28;20056;-70
2023/05/09 06:27:55;;;;;;;10.90;5.07;;;15.00;99.90;;;;;;5037751;28;20029;-71
2023/05/09 06:30:21;;;;;;;7.13;4.22;;;15.00;99.90;;;;;;5037928;28;20079;-70
2023/05/09 06:32:47;;;;;;;6.45;3.88;;;15.00;99.90;;;;;;5037342;28;20032;-69
2023/05/09 06:35:12;;;;;;;8.55;4.15;;;15.00;99.90;;;;;;5037818;28;20389;-70
2023/05/09 06:37:38;;;;;;;14.60;4.03;;;15.10;99.90;;;;;;5037637;28;20036;-70
2023/05/09 06:40:04;;;;;;;8.13;3.85;;;15.20;99.90;;;;;;5037920;28;20025;-70
2023/05/09 06:42:32;;;;;;;8.40;4.13;;;15.30;99.90;;;;;;5036731;28;20021;-69
2023/05/09 06:44:58;;;;;;;7.80;4.57;;;15.30;99.90;;;;;;5037764;28;20017;-69
2023/05/09 06:47:23;;;;;;;6.55;3.80;;;15.40;99.90;;;;;;5035884;28;20022;-69
2023/05/09 06:49:49;;;;;;;10.05;4.00;;;15.50;99.90;;;;;;5036820;28;20029;-70
2023/05/09 06:52:15;;;;;;;9.88;3.67;;;15.50;99.90;;;;;;5037299;28;20080;-69
2023/05/09 06:54:40;;;;;;;9.20;4.53;;;15.60;99.90;;;;;;5037165;28;20426;-70
2023/05/09 06:57:06;;;;;;;9.30;4.70;;;15.70;99.90;;;;;;5037545;28;20136;-70
2023/05/09 06:59:32;;;;;;;16.38;4.57;;;15.80;99.90;;;;;;5036858;28;20030;-69
2023/05/09 07:01:58;;;;;;;12.75;5.20;;;15.80;99.90;;;;;;5037042;28;20113;-69
2023/05/09 07:04:23;;;;;;;9.43;3.60;;;15.80;99.90;;;;;;5037043;28;20022;-69
2023/05/09 07:06:49;;;;;;;8.25;3.95;;;15.80;99.90;;;;;;5037074;28;20021;-69
2023/05/09 07:09:19;;;;;;;15.68;5.75;;;16.00;99.90;;;;;;5031743;28;20030;-69
2023/05/09 07:11:45;;;;;;;10.95;3.90;;;16.00;99.90;;;;;;5030517;28;20040;-69
2023/05/09 07:14:10;;;;;;;8.98;3.78;;;16.10;99.90;;;;;;5036884;28;20021;-69
2023/05/09 07:16:36;;;;;;;7.80;3.90;;;16.20;99.90;;;;;;5036993;28;20036;-69
2023/05/09 07:19:02;;;;;;;8.90;4.68;;;16.20;99.90;;;;;;5036610;28;20050;-69
2023/05/09 07:21:28;;;;;;;13.43;4.40;;;16.20;99.90;;;;;;5035888;28;20511;-69
2023/05/09 07:23:53;;;;;;;11.20;5.15;;;16.20;99.90;;;;;;5035481;28;20507;-69
2023/05/09 07:26:20;;;;;;;11.07;4.55;;;16.20;99.90;;;;;;5036301;28;20030;-69
2023/05/09 07:28:46;;;;;;;8.35;4.07;;;16.30;99.90;;;;;;5036604;28;20108;-69
2023/05/09 07:31:11;;;;;;;10.95;3.97;;;16.50;99.90;;;;;;5036431;28;20083;-69
2023/05/09 07:33:37;;;;;;;15.00;4.35;;;16.60;99.90;;;;;;5036728;28;20029;-69
2023/05/09 07:36:02;;;;;;;10.13;3.88;;;16.70;99.90;;;;;;5036675;28;20026;-69
2023/05/09 07:38:28;;;;;;;9.43;3.63;;;16.80;99.90;;;;;;5035307;28;20033;-69
2023/05/09 07:40:54;;;;;;;15.52;4.65;;;16.80;99.90;;;;;;5035209;28;20425;-69
2023/05/09 07:43:19;;;;;;;16.85;4.80;;;16.80;99.90;;;;;;5036714;28;20040;-69
2023/05/09 07:45:45;;;;;;;11.35;5.57;;;17.00;99.90;;;;;;5034980;28;20083;-69
2023/05/09 07:48:11;;;;;;;9.90;5.13;;;17.10;99.90;;;;;;5036629;28;20029;-69
2023/05/09 07:50:37;;;;;;;16.42;6.60;;;17.00;99.90;;;;;;5036794;28;20394;-69
2023/05/09 07:53:03;;;;;;;22.30;6.32;;;17.10;99.90;;;;;;5037010;28;20543;-69
2023/05/09 07:55:28;;;;;;;14.00;4.57;;;17.10;99.90;;;;;;5030064;28;20030;-69
2023/05/09 07:57:54;;;;;;;13.80;4.20;;;17.20;99.90;;;;;;5036044;28;20029;-68
2023/05/09 08:00:22;;;;;;;12.18;4.22;;;17.30;99.90;;;;;;5035478;28;20021;-69
2023/05/09 08:02:50;;;;;;;10.48;4.13;;;17.30;99.90;;;;;;5037381;28;20151;-69
2023/05/09 08:05:15;;;;;;;11.52;4.90;;;17.40;99.90;;;;;;5035582;28;20017;-69
2023/05/09 08:07:41;;;;;;;13.68;4.20;;;17.40;99.90;;;;;;5037342;28;20028;-69
2023/05/09 08:10:08;;;;;;;11.18;4.70;;;17.30;99.90;;;;;;5037147;28;20028;-69
2023/05/09 08:12:33;;;;;;;7.43;3.90;;;17.20;99.90;;;;;;5038819;28;20018;-69
2023/05/09 08:14:59;;;;;;;11.13;4.63;;;17.20;99.90;;;;;;5037754;28;20021;-69
2023/05/09 08:17:25;;;;;;;8.73;4.95;;;17.30;99.90;;;;;;5038367;28;20049;-69
2023/05/09 08:19:51;;;;;;;12.80;4.13;;;17.20;99.90;;;;;;5038067;28;20029;-69
2023/05/09 08:22:17;;;;;;;13.73;5.35;;;17.30;99.90;;;;;;5037737;28;20728;-69
2023/05/09 08:24:44;;;;;;;15.00;3.80;;;17.40;99.90;;;;;;5036039;28;20029;-69
2023/05/09 08:27:12;;;;;;;11.25;4.28;;;17.50;99.90;;;;;;5036250;28;20029;-69
2023/05/09 08:29:40;;;;;;;11.48;4.78;;;17.60;99.90;;;;;;5033435;28;20056;-69
2023/05/09 08:32:06;;;;;;;16.42;4.15;;;17.70;99.90;;;;;;5038201;28;20021;-69
2023/05/09 08:34:33;;;;;;;11.93;4.95;;;17.60;99.90;;;;;;5032617;28;20039;-69
2023/05/09 08:37:03;;;;;;;12.80;4.50;;;17.70;99.90;;;;;;5037564;28;20013;-69
2023/05/09 08:39:33;;;;;;;12.43;4.70;;;17.80;99.90;;;;;;5038313;28;20076;-69
2023/05/09 08:42:00;;;;;;;15.50;4.00;;;18.00;99.90;;;;;;5035433;28;20060;-69
2023/05/09 08:44:28;;;;;;;10.88;3.13;;;18.00;99.90;;;;;;5036323;28;20486;-70
2023/05/09 08:46:58;;;;;;;10.70;3.63;;;18.10;99.90;;;;;;5038002;28;20017;-69
2023/05/09 08:49:24;;;;;;;10.95;4.20;;;18.10;99.90;;;;;;5038232;28;20393;-69
2023/05/09 08:51:50;;;;;;;12.07;3.78;;;18.20;99.90;;;;;;5038289;28;20836;-69
2023/05/09 08:54:17;;;;;;;10.35;3.85;;;18.30;99.90;;;;;;5037693;28;20512;-69
2023/05/09 08:56:42;;;;;;;10.68;3.60;;;18.20;99.90;;;;;;5037902;28;20021;-70
2023/05/09 08:59:08;;;;;;;15.43;4.78;;;18.40;99.90;;;;;;5035191;28;20032;-70
2023/05/09 09:01:34;;;;;;;9.77;3.63;;;18.40;99.90;;;;;;5037489;28;20088;-70
2023/05/09 09:04:04;;;;;;;11.00;4.03;;;18.30;99.90;;;;;;5037416;28;20017;-69
2023/05/09 09:06:33;;;;;;;12.77;4.53;;;18.30;99.90;;;;;;5037123;28;20033;-70
2023/05/09 09:08:59;;;;;;;9.98;3.33;;;18.10;99.90;;;;;;5037554;28;20326;-69
2023/05/09 09:11:27;;;;;;;15.85;3.72;;;18.00;99.90;;;;;;5034013;28;20033;-69
2023/05/09 09:13:54;;;;;;;8.35;3.22;;;18.10;99.90;;;;;;5036869;28;20481;-69
2023/05/09 09:16:22;;;;;;;10.85;4.30;;;18.10;99.90;;;;;;5037684;28;20159;-70
2023/05/09 09:18:51;;;;;;;9.40;3.67;;;18.10;99.90;;;;;;5035349;28;20460;-70
2023/05/09 09:21:19;;;;;;;13.35;4.20;;;18.10;99.90;;;;;;5033844;28;20071;-69
2023/05/09 09:23:46;;;;;;;10.27;3.47;;;18.10;99.90;;;;;;5036735;28;20029;-70
2023/05/09 09:26:12;;;;;;;10.18;3.83;;;18.10;99.90;;;;;;5034647;28;20028;-69
2023/05/09 09:28:38;;;;;;;5.65;3.05;;;18.20;99.90;;;;;;5036527;28;20029;-69
2023/05/09 09:31:24;;;;;;;9.20;3.25;;;18.30;99.90;;;;;;5035814;28;20048;-69
2023/05/09 09:33:50;;;;;;;8.48;3.75;;;18.30;99.90;;;;;;5034971;28;20036;-69
2023/05/09 09:36:25;;;;;;;6.38;3.13;;;18.20;99.90;;;;;;5034559;28;20025;-69
2023/05/09 09:38:57;;;;;;;9.88;2.97;;;18.10;99.90;;;;;;5036597;28;20029;-70
2023/05/09 09:41:36;;;;;;;8.95;3.10;;;18.10;99.90;;;;;;5035848;28;20031;-70
2023/05/09 09:44:15;;;;;;;8.00;3.35;;;18.00;99.90;;;;;;5035756;28;20029;-69
2023/05/09 09:46:41;;;;;;;8.25;3.30;;;18.00;99.90;;;;;;5033216;28;20029;-69
2023/05/09 09:49:15;;;;;;;9.50;3.15;;;17.80;99.90;;;;;;5036823;28;20026;-69
2023/05/09 09:51:41;;;;;;;7.75;3.25;;;17.80;99.90;;;;;;5037016;28;20025;-69
2023/05/09 09:54:08;;;;;;;7.45;2.30;;;17.80;99.90;;;;;;5031623;28;20063;-69
2023/05/09 09:56:48;;;;;;;5.63;2.63;;;17.70;99.90;;;;;;5033321;28;20021;-69
2023/05/09 09:59:16;;;;;;;7.72;2.53;;;17.60;99.90;;;;;;5029952;28;20034;-69
2023/05/09 10:02:00;;;;;;;5.45;2.53;;;17.60;99.90;;;;;;5036990;28;20026;-69
2023/05/09 10:04:37;;;;;;;6.63;2.25;;;17.60;99.90;;;;;;5036305;28;20021;-70
2023/05/09 10:07:05;;;;;;;7.15;2.60;;;17.50;99.90;;;;;;5032012;28;20021;-70
2023/05/09 10:09:32;;;;;;;5.50;2.45;;;17.20;99.90;;;;;;5035996;28;20036;-70
2023/05/09 10:12:03;;;;;;;4.95;2.42;;;16.80;99.90;;;;;;5036362;28;20116;-69
2023/05/09 10:14:31;;;;;;;4.97;2.17;;;16.40;99.90;;;;;;5031583;28;20080;-71
2023/05/09 10:16:57;;;;;;;6.40;2.75;;;15.90;99.90;;;;;;5034780;28;20037;-71
2023/05/09 10:19:25;;;;;;;8.68;3.53;;;15.30;99.90;;;;;;5035070;28;20032;-73
2023/05/09 10:22:01;;;;;;;10.73;3.30;;;14.80;99.90;;;;;;5036463;28;20017;-72
2023/05/09 10:24:32;;;;;;;8.13;4.07;;;14.40;99.90;;;;;;5029625;28;20028;-72
2023/05/09 10:27:04;;;;;;;5.97;3.70;;;14.30;99.90;;;;;;5035933;28;20027;-73
2023/05/09 10:29:35;;;;;;;13.02;4.45;;;14.20;99.90;;;;;;5036914;28;20032;-72
2023/05/09 10:32:11;;;;;;;8.70;4.20;;;14.20;99.90;;;;;;5030824;28;20494;-72
2023/05/09 10:34:40;;;;;;;11.48;4.70;;;14.10;99.90;;;;;;5035334;28;20433;-70
2023/05/09 10:37:07;;;;;;;11.80;4.00;;;14.10;99.90;;;;;;5036314;28;20580;-71
2023/05/09 10:39:34;;;;;;;5.88;3.30;;;14.10;99.90;;;;;;5035006;28;20029;-70
2023/05/09 10:42:00;;;;;;;9.98;4.82;;;13.90;99.90;;;;;;5034951;28;20018;-70
2023/05/09 10:44:26;;;;;;;9.75;5.18;;;13.80;99.90;;;;;;5034001;28;20766;-70
2023/05/09 10:46:52;;;;;;;7.28;4.40;;;13.80;99.90;;;;;;5035706;28;20033;-70
2023/05/09 10:49:19;;;;;;;7.45;4.05;;;13.80;99.90;;;;;;5035872;28;20033;-71
2023/05/09 10:51:44;;;;;;;9.30;3.42;;;13.70;99.90;;;;;;5031614;28;20034;-69
2023/05/09 10:54:17;;;;;;;9.73;4.38;;;13.60;99.90;;;;;;5035528;28;20104;-69
2023/05/09 10:56:42;;;;;;;8.77;4.15;;;13.70;99.90;;;;;;5035008;28;20034;-69
2023/05/09 10:59:31;;;;;;;6.93;4.28;;;13.80;99.90;;;;;;5035594;28;20025;-70
2023/05/09 11:02:01;;;;;;;13.40;4.60;;;13.90;99.90;;;;;;5035407;28;20021;-69
2023/05/09 11:04:27;;;;;;;8.98;4.85;;;13.90;99.90;;;;;;5030228;28;20079;-70
2023/05/09 11:06:54;;;;;;;7.30;4.30;;;13.90;99.90;;;;;;5035401;28;20075;-70
2023/05/09 11:09:34;;;;;;;8.30;4.82;;;14.00;99.90;;;;;;5032588;28;20104;-70
2023/05/09 11:12:10;;;;;;;9.55;4.40;;;14.20;99.90;;;;;;5035566;28;20468;-70
2023/05/09 11:14:46;;;;;;;7.07;4.30;;;14.30;99.90;;;;;;5032332;28;20056;-70
2023/05/09 11:17:14;;;;;;;7.75;4.60;;;14.50;99.90;;;;;;5033766;28;20042;-70
2023/05/09 11:19:46;;;;;;;10.90;4.60;;;14.50;99.90;;;;;;5031672;28;20030;-70
2023/05/09 11:22:20;;;;;;;15.55;4.57;;;14.50;99.90;;;;;;5034181;28;20025;-70
2023/05/09 11:25:13;;;;;;;8.07;4.53;;;14.40;99.90;;;;;;5031991;28;20025;-71
2023/05/09 11:27:48;;;;;;;6.47;4.55;;;14.50;99.90;;;;;;5032499;28;20113;-71
2023/05/09 11:30:16;;;;;;;9.95;4.70;;;14.40;99.90;;;;;;5034343;28;20845;-70
2023/05/09 11:32:56;;;;;;;7.35;4.53;;;14.50;99.90;;;;;;5024901;28;20061;-70
2023/05/09 11:35:25;;;;;;;8.10;4.60;;;14.50;99.90;;;;;;5027979;28;20029;-70
2023/05/09 11:38:05;;;;;;;8.70;4.63;;;14.60;99.90;;;;;;5032446;28;20025;-70
2023/05/09 11:40:32;;;;;;;7.07;4.55;;;14.60;99.90;;;;;;5026581;28;20029;-70
2023/05/09 11:42:59;;;;;;;9.57;4.22;;;14.50;99.90;;;;;;5033891;28;20092;-71
2023/05/09 11:45:30;;;;;;;6.88;4.45;;;14.50;99.90;;;;;;5033233;28;20021;-70
2023/05/09 11:47:56;;;;;;;5.47;3.92;;;14.50;99.90;;;;;;5034004;28;20013;-71
2023/05/09 11:50:22;;;;;;;10.85;3.90;;;14.50;99.90;;;;;;5029592;28;20025;-71
2023/05/09 11:52:49;;;;;;;9.10;4.00;;;14.50;99.90;;;;;;5027489;28;20022;-71
2023/05/09 11:55:17;;;;;;;12.27;4.35;;;14.50;99.90;;;;;;5033173;28;20030;-71
2023/05/09 11:57:47;;;;;;;7.47;3.95;;;14.50;99.90;;;;;;5034085;28;20017;-70
2023/05/09 12:00:15;;;;;;;5.80;3.83;;;14.50;99.90;;;;;;5032318;28;20021;-71
2023/05/09 12:02:44;;;;;;;6.35;4.15;;;14.60;99.90;;;;;;5034324;28;20519;-70
2023/05/09 12:05:12;;;;;;;5.05;3.40;;;14.60;99.90;;;;;;5033266;28;20067;-70
2023/05/09 12:07:38;;;;;;;12.35;3.83;;;14.60;99.90;;;;;;5029941;28;20022;-72
2023/05/09 12:10:09;;;;;;;6.55;4.93;;;14.70;99.90;;;;;;5035171;28;20115;-71
2023/05/09 12:12:36;;;;;;;13.20;3.45;;;14.70;99.90;;;;;;5033119;28;20030;-72
2023/05/09 12:15:07;;;;;;;9.35;3.65;;;14.80;99.90;;;;;;5033556;28;20029;-71
2023/05/09 12:17:34;;;;;;;7.03;3.88;;;14.90;99.90;;;;;;5034582;28;20469;-72
2023/05/09 12:20:00;;;;;;;4.10;2.80;;;14.90;99.90;;;;;;5033698;28;20493;-71
2023/05/09 12:22:26;;;;;;;6.57;3.53;;;15.00;99.90;;;;;;5035317;28;20041;-71
2023/05/09 12:24:53;;;;;;;5.63;3.17;;;14.90;99.90;;;;;;5029640;28;20071;-70
2023/05/09 12:27:19;;;;;;;5.03;3.15;;;15.00;99.90;;;;;;5034457;28;20034;-71
2023/05/09 12:29:47;;;;;;;5.10;3.10;;;14.90;99.90;;;;;;5031693;28;20034;-71
2023/05/09 12:32:16;;;;;;;5.38;3.20;;;14.90;99.90;;;;;;5029526;28;20033;-70
2023/05/09 12:34:44;;;;;;;5.72;2.75;;;14.90;99.90;;;;;;5033276;28;20032;-70
2023/05/09 12:37:17;;;;;;;4.78;2.90;;;14.90;99.90;;;;;;5034370;28;20100;-70
2023/05/09 12:40:03;;;;;;;4.68;2.83;;;14.90;99.90;;;;;;5033954;28;20025;-70
2023/05/09 12:42:33;;;;;;;7.75;2.88;;;14.90;99.90;;;;;;5033171;28;21195;-70
2023/05/09 12:45:01;;;;;;;4.83;2.97;;;14.90;99.90;;;;;;5029473;28;20026;-71
2023/05/09 12:47:28;;;;;;;5.53;2.70;;;14.90;99.90;;;;;;5036425;28;20264;-70
2023/05/09 12:50:01;;;;;;;7.47;2.15;;;14.90;99.90;;;;;;5037062;28;20021;-76